Redwood City, CA

4:53 PM PDT en Octubre 22, 2014 (GMT -0700)
Jasper Ridge Biological Preserve | Change Station
CLOSE
Current Station
Estación meteorológica personal
Location: Woodside, CA
Altura: 420 ft
Estaciones meteorológicas cercanas

Alt 420 ft 37.41 °N, 122.24 °W | Updated 2 minutes ago

Despejado
Despejado
75.0 ° F
Sensación térmica 78 ° F
N
2.0
Viento Variable Viento desde Norte
Gusts 5.0 mph

Hoy
Alta -- | Baja -- ° F
--% Posibilidad de precipitaciones
Ayer
Alta -- | Baja -- ° F
Precip. -- pul
7:23 AM 6:22 PM
Creciente menguante, 1% visible
Presión 30.03 pul
Visibilidad 10.0 Millas
Nubes Muy nublado 20000 ft
Índice de calor 78 ° F
Punto de rocío 54 ° F
Humedad 49%
Precipitaciones 0.00 pul
Espesor de la nieve No disponible.
UV 1 de una escala de 12
Polen 2.40 de una escala de 12
Ozono Buena
PM2.5 Buena
Flu Activity Sporadic
METAR KSQL 222250Z 33006KT 10SM BKN200 22/12 A3003

More Conditions Fewer Conditions

Presión 30.03 pul
Visibilidad 10.0 Millas
Nubes Muy nublado 20000 ft
Índice de calor 78 ° F
Punto de rocío 54 ° F
Humedad 49%
Precipitaciones 0.00 pul
Espesor de la nieve No disponible.
UV 1 de una escala de 12
Polen 2.40 de una escala de 12
Ozono Buena
PM2.5 Buena
Flu Activity Sporadic
METAR KSQL 222250Z 33006KT 10SM BKN200 22/12 A3003

More Conditions Fewer Conditions

10-Day Weather Forecast

Almanac

Astronomía

Oct. 22, 2014 Salida Puesta
Hora real 7:23 AM PDT 6:22 PM PDT
Crepúsculo civil 6:57 AM PDT 6:48 PM PDT
Crepúsculo náutico 6:26 AM PDT 7:19 PM PDT
Crepúsculo astronómico 5:56 AM PDT 7:49 PM PDT
Luna 6:11 AM PDT 5:51 PM PDT
Horas de luz 11h 51m
Horas de luz
10h 58m
Tomorrow will be 2m 15s shorter.
Creciente menguante, 1% of the Moon is Illuminated
Hoy
Creciente menguante
Oct 23
Nueva
Oct 30
Cuarto creciente
Nov 6
Luna llena
Nov 14
Cuarto menguante

Extremos de hoy

Máximos del estado Bajos del estado

Community

WunderPhotos

Upload Photos

1,764,080 ¡fotos cargadas!

WunderBlogs® & News

Nearby

Calidad del aire

  Calidad del aire Índice AQ Contaminante
Ayer Buena
OZONE
Ayer Buena
PM2.5
Real Buena
PM2.5
Real Buena
OZONE
Miércoles Buena
OZONE
Jueves Buena
OZONE
Viernes Buena
OZONE
Sábado Buena
PM2.5
Domingo Buena
PM2.5
Lunes Buena
PM2.5

Grosos de nieve

Estación Profundido Altura
Rubicon #2 0 in 7500 ft
Summit Meadow 0 in 9122 ft
Monitor Pass 0 in 8350 ft
Adin Mountain 0 in 6200 ft

Actividad de terremotos

Ciudad Distance Mag. Tiempo y dato
No hay informes recientes de la actividad sísmica.
Magnitud mínima muestra es 2,5.

Temperaturas de aguas costeras

Lugar Temperatura
Sin partes meteorológicos de las estaciones

Estaciones meteorológicas cercanas